Flight Track Log - Related Links

Times and Time Zones

All times are in EDT time to prevent confusion due to time zone crossing. See the AMX526 flight status page for this flight to view local times or setup timezone preferences in your user account.

Time Position Orientation Groundspeed Altitude Reporting Facility
EDT Latitude Longitude Course Direction KTS MPH feet Rate Location/Type
Tue 08:55:07 PM 20.9310 -89.6350 90° East 143 165 700  Level FlightAware ADS-B
Tue 08:55:23 PM 20.9280 -89.6250 108° East 137 158 1,300 1,833 Climbing FlightAware ADS-B
Tue 08:55:43 PM 20.9250 -89.6110 103° East 157 181 1,800 1,350 Climbing FlightAware ADS-B
Tue 08:56:03 PM 20.9210 -89.5940 104° East 187 215 2,200 1,500 Climbing FlightAware ADS-B
Tue 08:56:15 PM 20.9190 -89.5830 101° East 194 223 2,600 2,667 Climbing FlightAware ADS-B
Tue 08:56:39 PM 20.9130 -89.5610 106° East 194 223 3,800 3,000 Climbing FlightAware ADS-B
Tue 08:56:47 PM 20.9120 -89.5530 98° East 194 223 4,200 2,143 Climbing FlightAware ADS-B
Tue 08:57:07 PM 20.9190 -89.5350 67° East 211 243 4,800 1,750 Climbing FlightAware ADS-B
Tue 08:57:11 PM 20.9220 -89.5310 51° Northeast 219 252 4,900 1,500 Climbing FlightAware ADS-B
Tue 08:57:19 PM 20.9290 -89.5270 28° Northeast 232 267 5,100 1,125 Climbing FlightAware ADS-B
Tue 08:57:27 PM 20.9380 -89.5250 12° North 253 291 5,200 1,667 Climbing FlightAware ADS-B
Tue 08:57:55 PM 20.9690 -89.5360 342° North 282 325 6,100 2,250 Climbing FlightAware ADS-B
Tue 08:58:15 PM 20.9930 -89.5520 328° Northwest 290 334 7,000 2,667 Climbing FlightAware ADS-B
Tue 08:58:31 PM 21.0120 -89.5640 329° Northwest 293 337 7,700 2,667 Climbing FlightAware ADS-B
Tue 08:58:51 PM 21.0360 -89.5780 331° Northwest 297 342 8,600 2,550 Climbing FlightAware ADS-B
Tue 08:59:11 PM 21.0600 -89.5920 331° Northwest 301 346 9,400 2,571 Climbing FlightAware ADS-B
Tue 08:59:19 PM 21.0700 -89.5980 331° Northwest 303 349 9,800 3,000 Climbing FlightAware ADS-B
Tue 08:59:31 PM 21.0810 -89.6120 310° West 314 361 10,400 2,100 Climbing FlightAware ADS-B
Tue 08:59:39 PM 21.0870 -89.6240 298° West 328 377 10,500 1,125 Climbing FlightAware ADS-B
Tue 08:59:47 PM 21.0890 -89.6360 280° West 339 390 10,700 1,364 Climbing FlightAware ADS-B
Tue 09:00:23 PM 21.0930 -89.7010 274° West 376 433 11,500 2,174 Climbing FlightAware ADS-B
Tue 09:00:56 PM 21.0990 -89.7610 276° West 373 429 13,200 2,824 Climbing FlightAware ADS-B
Tue 09:01:31 PM 21.1050 -89.8270 276° West 384 442 14,700 2,620 Climbing FlightAware ADS-B
Tue 09:02:07 PM 21.1110 -89.8950 275° West 391 450 16,300 2,743 Climbing FlightAware ADS-B
Tue 09:02:41 PM 21.1170 -89.9620 275° West 398 458 17,900 2,522 Climbing FlightAware ADS-B
Tue 09:03:16 PM 21.1230 -90.0310 275° West 406 467 19,200 2,333 Climbing FlightAware ADS-B
Tue 09:03:53 PM 21.1300 -90.1060 276° West 415 478 20,700 2,435 Climbing FlightAware ADS-B
Tue 09:04:25 PM 21.1360 -90.1730 275° West 423 487 22,000 2,294 Climbing FlightAware ADS-B
Tue 09:05:01 PM 21.1420 -90.2490 275° West 432 497 23,300 2,083 Climbing FlightAware ADS-B
Tue 09:05:37 PM 21.1490 -90.3260 276° West 439 505 24,500 2,219 Climbing FlightAware ADS-B
Tue 09:06:14 PM 21.1560 -90.4040 276° West 437 503 26,000 2,314 Climbing FlightAware ADS-B
Tue 09:06:47 PM 21.1620 -90.4770 275° West 440 506 27,200 1,890 Climbing FlightAware ADS-B
Tue 09:07:27 PM 21.1610 -90.5640 269° West 452 520 28,300 1,579 Climbing FlightAware ADS-B
Tue 09:08:03 PM 21.1550 -90.6460 266° West 462 532 29,200 1,541 Climbing FlightAware ADS-B
Tue 09:08:41 PM 21.1480 -90.7320 265° West 467 537 30,200 1,714 Climbing FlightAware ADS-B
Tue 09:09:13 PM 21.1410 -90.8070 264° West 466 536 31,200 2,206 Climbing FlightAware ADS-B
Tue 09:09:49 PM 21.1350 -90.8880 265° West 453 521 32,700 2,382 Climbing FlightAware ADS-B
Tue 09:10:21 PM 21.1290 -90.9610 265° West 446 513 33,900 2,029 Climbing FlightAware ADS-B
Tue 09:10:57 PM 21.1220 -91.0380 264° West 443 510 35,000 1,622 Climbing FlightAware ADS-B
Tue 09:11:35 PM 21.1150 -91.1220 265° West 444 511 35,900 1,462 Climbing FlightAware ADS-B
Tue 09:12:15 PM 21.1080 -91.2100 265° West 444 511 36,900 1,421 Climbing FlightAware ADS-B
Tue 09:12:51 PM 21.1010 -91.2880 265° West 444 511 37,700 1,500 Climbing FlightAware ADS-B
Tue 09:13:27 PM 21.0940 -91.3660 265° West 437 503 38,700 1,588 Climbing FlightAware ADS-B
Tue 09:13:59 PM 21.0890 -91.4350 266° West 433 498 39,500 1,147 Climbing FlightAware ADS-B
Tue 09:14:35 PM 21.0820 -91.5110 264° West 435 501 40,000 429 Climbing FlightAware ADS-B
Tue 09:15:09 PM 21.0760 -91.5830 265° West 435 501 40,000  Level FlightAware ADS-B
Tue 09:15:47 PM 21.0730 -91.6210 265° West 435 501 40,000  Level FlightAware ADS-B
Tue 09:16:20 PM 21.0660 -91.6950 264° West 435 501 40,000  Level FlightAware ADS-B
Tue 09:16:54 PM 21.0590 -91.7710 264° West 435 501 40,000  Level FlightAware ADS-B
Tue 09:17:42 PM 21.0500 -91.8750 265° West 434 499 40,000  Level FlightAware ADS-B
Tue 09:18:16 PM 21.0450 -91.9390 265° West 432 497 40,000  Level FlightAware ADS-B
Tue 09:18:54 PM 21.0370 -92.0220 264° West 429 494 40,000  Level FlightAware ADS-B
Tue 09:19:33 PM 21.0300 -92.1020 265° West 429 494 40,000  Level FlightAware ADS-B
Tue 09:20:20 PM 21.0220 -92.1960 265° West 425 489 40,000  Level FlightAware ADS-B
Tue 09:20:59 PM 21.0130 -92.2950 264° West 424 488 40,000  Level FlightAware ADS-B
Tue 09:21:30 PM 21.0070 -92.3540 264° West 426 490 40,000  Level FlightAware ADS-B
Tue 09:22:07 PM 21.0010 -92.4210 265° West 428 493 40,000  Level FlightAware ADS-B
Tue 09:22:40 PM 20.9940 -92.4980 264° West 428 493 40,000  Level FlightAware ADS-B
Tue 09:23:23 PM 20.9870 -92.5700 264° West 428 493 40,000  Level FlightAware ADS-B
Tue 09:23:54 PM 20.9800 -92.6490 265° West 427 491 40,000  Level FlightAware ADS-B
Tue 09:24:48 PM 20.9690 -92.7630 264° West 426 490 40,000  Level FlightAware ADS-B
Tue 09:25:25 PM 20.9620 -92.8400 264° West 426 490 40,000  Level FlightAware ADS-B
Tue 09:25:56 PM 20.9560 -92.9040 264° West 426 490 40,000  Level FlightAware ADS-B
Tue 09:26:36 PM 20.9480 -92.9880 264° West 425 489 40,000  Level FlightAware ADS-B
Tue 09:27:28 PM 20.9380 -93.0930 264° West 424 488 40,000  Level FlightAware ADS-B
Tue 09:28:05 PM 20.9300 -93.1780 264° West 424 488 40,000  Level FlightAware ADS-B
Tue 09:28:40 PM 20.9250 -93.2260 264° West 424 488 40,000  Level FlightAware ADS-B
Tue 09:29:16 PM 20.9190 -93.2900 264° West 424 488 40,000  Level FlightAware ADS-B
Tue 09:29:52 PM 20.9130 -93.3540 264° West 424 488 40,000  Level FlightAware ADS-B
Tue 09:30:28 PM 20.9070 -93.4180 264° West 424 488 40,000  Level FlightAware ADS-B
Tue 09:31:06 PM 20.9000 -93.4850 264° West 424 488 40,000  Level FlightAware ADS-B
Tue 09:31:42 PM 20.8860 -93.6260 264° West 421 484 40,000  Level FlightAware ADS-B
Tue 09:32:30 PM 20.8780 -93.7160 265° West 421 484 40,000  Level FlightAware ADS-B
Tue 09:33:06 PM 20.8710 -93.7790 263° West 421 484 40,000  Level FlightAware ADS-B
Tue 09:33:42 PM 20.8650 -93.8430 264° West 421 484 40,000  Level FlightAware ADS-B
Tue 09:34:19 PM 20.8590 -93.9080 264° West 421 484 40,000  Level FlightAware ADS-B
Tue 09:34:55 PM 20.8520 -93.9710 263° West 421 484 40,000  Level FlightAware ADS-B
Tue 09:35:32 PM 20.8460 -94.0370 264° West 421 484 40,000  Level FlightAware ADS-B
Tue 09:36:08 PM 20.8400 -94.1000 264° West 421 484 40,000  Level FlightAware ADS-B
Tue 09:36:44 PM 20.8340 -94.1630 264° West 421 484 40,000  Level FlightAware ADS-B
Tue 09:37:21 PM 20.8270 -94.2290 264° West 421 484 40,000  Level FlightAware ADS-B
Tue 09:37:57 PM 20.8210 -94.2920 264° West 421 484 40,000  Level FlightAware ADS-B
Tue 09:38:33 PM 20.8150 -94.3550 264° West 421 484 40,000  Level FlightAware ADS-B
Tue 09:39:09 PM 20.8080 -94.4190 263° West 421 484 40,000  Level FlightAware ADS-B
Tue 09:39:46 PM 20.8020 -94.4840 264° West 421 484 40,000  Level FlightAware ADS-B
Tue 09:40:23 PM 20.7960 -94.5490 264° West 421 484 40,000  Level FlightAware ADS-B
Tue 09:40:59 PM 20.7890 -94.6130 263° West 421 484 40,000  Level FlightAware ADS-B
Tue 09:41:35 PM 20.7830 -94.6760 264° West 421 484 40,000 -652 Level FlightAware ADS-B
Tue 09:44:00 PM 20.7042 -94.9456 253° West  Level Estimated
Tue 09:45:00 PM 20.6715 -95.0571 253° West  Level Estimated
Tue 09:46:00 PM 20.6387 -95.1686 253° West  Level Estimated
Tue 09:47:00 PM 20.6058 -95.2800 253° West  Level Estimated
Tue 09:48:00 PM 20.5729 -95.3913 252° West  Level Estimated
Tue 09:49:00 PM 20.5399 -95.5026 252° West  Level Estimated
Tue 09:50:00 PM 20.5068 -95.6139 252° West  Level Estimated
Tue 09:51:00 PM 20.4737 -95.7251 252° West  Level Estimated
Tue 09:52:00 PM 20.4404 -95.8362 252° West  Level Estimated
Tue 09:53:00 PM 20.4072 -95.9473 252° West  Level Estimated
Tue 09:54:00 PM 20.3738 -96.0584 252° West  Level Estimated
Tue 09:55:00 PM 20.3404 -96.1694 252° West  Level Estimated
Tue 09:56:00 PM 20.3069 -96.2803 252° West  Level Estimated
Tue 09:57:00 PM 20.2733 -96.3913 252° West  Level Estimated
Tue 09:58:00 PM 20.2397 -96.5021 252° West  Level Estimated
Tue 09:59:00 PM 20.2059 -96.6129 252° West  Level Estimated
Tue 10:00:00 PM 20.1722 -96.7237 252° West  Level Estimated
Tue 10:01:00 PM 20.1383 -96.8344 252° West  Level Estimated
Tue 10:02:00 PM 20.1044 -96.9451 252° West  Level Estimated
Tue 10:03:00 PM 20.0704 -97.0557 252° West  Level Estimated
Tue 10:04:00 PM 20.0363 -97.1663 252° West  Level Estimated
Tue 10:05:00 PM 20.0022 -97.2768 252° West  Level Estimated
Tue 10:06:00 PM 19.9680 -97.3873 252° West  Level Estimated
Tue 10:07:00 PM 19.9338 -97.4977 252° West  Level Estimated
Tue 10:08:00 PM 19.8994 -97.6081 252° West  Level Estimated
Tue 10:09:00 PM 19.8650 -97.7185 252° West  Level Estimated
Tue 10:10:00 PM 19.8306 -97.8288 252° West  Level Estimated
Tue 10:11:00 PM 19.7960 -97.9390 252° West  Level Estimated
Tue 10:12:00 PM 19.7614 -98.0492 252° West  Level Estimated
Tue 10:13:00 PM 19.7268 -98.1593 252° West  Level Estimated
Tue 10:14:00 PM 19.6920 -98.2694 251° West  Level Estimated
Tue 10:15:00 PM 19.6572 -98.3795 251° West  Level Estimated
Tue 10:16:00 PM 19.6224 -98.4895 251° West  Level Estimated
Tue 10:16:16 PM 19.7660 -99.0070 251° West 310 357 17,000  Level FlightAware ADS-B
Tue 10:16:56 PM 19.7320 -99.0420 224° Southwest 310 357 16,800 -1,250 Descending FlightAware ADS-B
Tue 10:17:28 PM 19.6950 -99.0820 226° Southwest 290 334 15,500 -1,750 Descending FlightAware ADS-B
Tue 10:18:08 PM 19.6580 -99.1210 225° Southwest 284 327 14,700 -1,519 Descending FlightAware ADS-B
Tue 10:18:47 PM 19.6220 -99.1580 224° Southwest 291 335 13,500 -1,500 Descending FlightAware ADS-B
Tue 10:19:24 PM 19.5880 -99.1950 226° Southwest 283 326 12,800 -1,200 Descending FlightAware ADS-B
Tue 10:20:02 PM 19.5530 -99.2260 220° Southwest 235 270 12,000 -1,200 Descending FlightAware ADS-B
Tue 10:20:19 PM 19.5380 -99.2260 180° South 227 261 11,700 -1,125 Descending FlightAware ADS-B
Tue 10:20:34 PM 19.5210 -99.2210 165° South 213 245 11,400 -982 Descending FlightAware ADS-B
Tue 10:21:14 PM 19.4850 -99.2090 163° South 200 230 10,800 -880 Descending FlightAware ADS-B
Tue 10:21:49 PM 19.4560 -99.2020 167° South 195 224 10,300 -982 Descending FlightAware ADS-B
Tue 10:22:09 PM 19.4380 -99.1970 165° South 193 222 9,900 -1,091 Descending FlightAware ADS-B
Tue 10:22:22 PM 19.4260 -99.1940 167° South 190 219 9,700 -909 Descending FlightAware ADS-B
Tue 10:22:42 PM 19.4060 -99.1890 167° South 194 223 9,400 -1,143 Descending FlightAware ADS-B
Tue 10:23:04 PM 19.3880 -99.1810 157° South 193 222 8,900 -1,286 Descending FlightAware ADS-B
Tue 10:23:10 PM 19.3860 -99.1770 118° Southeast 178 205 8,800 -500 Descending FlightAware ADS-B
Tue 10:23:16 PM 19.3850 -99.1720 102° East 165 190 8,800 -643 Level FlightAware ADS-B
Tue 10:23:38 PM 19.3880 -99.1580 77° East 164 189 8,500 -789 Descending FlightAware ADS-B
Tue 10:23:54 PM 19.3940 -99.1450 64° Northeast 157 181 8,300 -789 Descending FlightAware ADS-B
Tue 10:24:16 PM 19.4020 -99.1310 59° Northeast 144 166 8,000 -766 Descending FlightAware ADS-B
Tue 10:24:41 PM 19.4100 -99.1170 59° Northeast 142 163 7,700 -346 Descending FlightAware ADS-B
Tue 10:25:08 PM 19.4170 -99.1030 62° Northeast 142 163 7,700  Level FlightAware ADS-B
Tue 10:27:00 PM 19.4363 -99.0721 56° Northeast  Level Estimated
Tue 10:28:00 PM 19.4363 -99.0721 43° Northeast  Level Estimated
Tue 10:29:00 PM 19.4363 -99.0721 43° Northeast  Level Estimated
Tue 10:30:00 PM 19.4363 -99.0721 43° Northeast  Level Estimated
Tue 10:31:00 PM 19.4363 -99.0721 43° Northeast  Level Estimated
Tue 10:32:00 PM 19.4363 -99.0721 43° Northeast  Level Estimated

Login

Don't have an account? Register now (free) for customized features, flight alerts, and more!